createdAt,value
2022-12-15T00:08:04.655Z,-0.60
2022-12-15T00:13:20.023Z,-0.60
2022-12-15T00:18:35.462Z,-0.70
2022-12-15T00:23:52.368Z,-0.70
2022-12-15T00:29:07.810Z,-0.80
2022-12-15T00:34:23.208Z,-0.80
2022-12-15T00:39:22.831Z,-0.80
2022-12-15T00:44:21.135Z,-0.50
2022-12-15T00:49:36.830Z,-0.70
2022-12-15T00:54:54.148Z,-0.90
2022-12-15T01:00:09.525Z,-0.90
2022-12-15T01:05:25.810Z,-0.90
2022-12-15T01:10:43.123Z,-0.90
2022-12-15T01:15:59.013Z,-0.90
2022-12-15T01:20:58.354Z,-0.90
2022-12-15T01:25:58.048Z,-0.60
2022-12-15T01:30:56.330Z,-1.00
2022-12-15T01:35:59.264Z,-0.70
2022-12-15T01:41:00.786Z,-1.00
2022-12-15T01:46:05.273Z,-0.90
2022-12-15T01:51:20.903Z,-0.90
2022-12-15T01:56:22.164Z,-0.90
2022-12-15T02:01:20.459Z,-0.90
2022-12-15T02:06:22.506Z,-0.90
2022-12-15T02:11:39.932Z,-0.80
2022-12-15T02:16:55.219Z,-0.70
2022-12-15T02:22:05.364Z,-0.70
2022-12-15T02:27:41.604Z,-0.40
2022-12-15T02:32:48.074Z,-0.90
2022-12-15T02:38:02.147Z,-1.00
2022-12-15T02:43:04.790Z,-0.90
2022-12-15T02:48:13.794Z,-0.70
2022-12-15T02:53:25.193Z,-1.10
2022-12-15T02:58:29.562Z,-1.10
2022-12-15T03:03:30.553Z,-1.00
2022-12-15T03:08:30.578Z,-1.00
2022-12-15T03:13:29.321Z,-1.00
2022-12-15T03:18:28.206Z,-1.00
2022-12-15T03:23:26.504Z,-1.00
2022-12-15T03:35:14.155Z,-1.00
2022-12-15T03:40:14.896Z,-1.10
2022-12-15T03:45:31.506Z,-1.00
2022-12-15T03:50:31.535Z,-1.00
2022-12-15T03:55:30.210Z,-0.90
2022-12-15T04:00:28.933Z,-0.80
2022-12-15T04:05:28.798Z,-0.80
2022-12-15T04:10:34.747Z,-0.80
2022-12-15T04:15:33.724Z,-0.90
2022-12-15T04:20:33.124Z,-0.80
2022-12-15T04:25:50.636Z,-0.90
2022-12-15T04:31:10.283Z,-1.10
2022-12-15T04:42:53.716Z,-1.20
2022-12-15T04:48:09.634Z,-1.20
2022-12-15T04:53:29.147Z,-1.20
2022-12-15T04:58:46.367Z,-1.20
2022-12-15T05:04:02.438Z,-1.10
2022-12-15T05:09:17.876Z,-1.00
2022-12-15T05:14:34.690Z,-0.90
2022-12-15T05:19:50.292Z,-0.90
2022-12-15T05:25:05.952Z,-0.70
2022-12-15T05:30:23.900Z,-1.10
2022-12-15T05:35:22.118Z,-1.10
2022-12-15T05:40:20.307Z,-0.90
2022-12-15T05:45:19.905Z,-1.10
2022-12-15T05:50:18.307Z,-1.10
2022-12-15T05:55:16.897Z,-1.10
2022-12-15T06:00:15.779Z,-1.10
2022-12-15T06:05:15.470Z,-1.00
2022-12-15T06:10:13.922Z,-1.00
2022-12-15T06:15:12.351Z,-1.00
2022-12-15T06:20:11.344Z,-1.00
2022-12-15T06:25:11.158Z,-1.00
2022-12-15T06:30:10.216Z,-0.60
2022-12-15T06:35:09.330Z,-0.90
2022-12-15T06:40:08.967Z,-0.80
2022-12-15T06:45:10.148Z,-0.80
2022-12-15T06:50:08.911Z,-0.70
2022-12-15T06:55:07.886Z,-0.70
2022-12-15T07:00:08.821Z,-0.70
2022-12-15T07:05:07.406Z,-0.70
2022-12-15T07:10:06.452Z,-0.80
2022-12-15T07:15:05.251Z,-0.80
2022-12-15T07:20:05.580Z,-0.80
2022-12-15T07:25:03.789Z,-0.90
2022-12-15T07:30:01.984Z,-0.50
2022-12-15T07:35:00.566Z,-0.50
2022-12-15T07:40:00.201Z,-0.90
2022-12-15T07:44:58.787Z,-0.90
2022-12-15T07:50:22.693Z,-0.90
2022-12-15T07:55:57.206Z,-0.90
2022-12-15T08:00:48.993Z,-0.90
2022-12-15T08:05:47.614Z,-0.80
2022-12-15T08:10:47.347Z,-0.80
2022-12-15T08:15:46.324Z,-0.70
2022-12-15T08:20:44.518Z,-0.70
2022-12-15T08:25:49.979Z,-0.30
2022-12-15T08:30:49.327Z,-0.50
2022-12-15T08:35:56.904Z,-0.50
2022-12-15T08:40:57.815Z,-0.50
2022-12-15T08:45:56.024Z,-0.50
2022-12-15T08:50:56.639Z,-0.40
2022-12-15T08:55:56.432Z,-0.30
2022-12-15T09:01:00.577Z,-0.20
2022-12-15T09:06:24.810Z,-0.20
2022-12-15T09:11:24.532Z,-0.20
2022-12-15T09:16:23.558Z,-0.20
2022-12-15T09:21:23.937Z,-0.20
2022-12-15T09:26:24.775Z,-0.10
2022-12-15T09:37:51.587Z,0.10
2022-12-15T09:43:17.672Z,0.10
2022-12-15T09:48:54.368Z,0.50
2022-12-15T09:53:55.031Z,0.30
2022-12-15T09:59:02.485Z,0.40
2022-12-15T10:04:07.830Z,0.40
2022-12-15T10:09:16.344Z,0.80
2022-12-15T10:14:25.270Z,0.70
2022-12-15T10:26:20.872Z,0.80
2022-12-15T10:31:28.846Z,0.90
2022-12-15T10:36:27.399Z,1.00
2022-12-15T10:41:26.913Z,1.20
2022-12-15T10:46:31.961Z,1.40
2022-12-15T10:51:32.473Z,1.40
2022-12-15T10:56:33.940Z,1.60
2022-12-15T11:01:35.799Z,1.50
2022-12-15T11:06:36.904Z,1.70
2022-12-15T11:12:04.045Z,2.00
2022-12-15T11:17:08.433Z,2.30
2022-12-15T11:22:12.926Z,2.30
2022-12-15T11:27:16.698Z,2.20
2022-12-15T11:32:16.470Z,2.40
2022-12-15T11:37:37.103Z,2.90
2022-12-15T11:42:43.975Z,2.60
2022-12-15T11:47:49.081Z,2.70
2022-12-15T11:53:16.650Z,2.80
2022-12-15T11:59:04.813Z,2.80
2022-12-15T12:04:16.169Z,3.00
2022-12-15T12:16:11.930Z,3.10
2022-12-15T12:21:16.264Z,3.10
2022-12-15T12:26:20.887Z,3.20
2022-12-15T12:31:28.423Z,3.30
2022-12-15T12:36:28.197Z,3.20
2022-12-15T12:41:34.587Z,3.30
2022-12-15T12:46:36.089Z,3.50
2022-12-15T12:51:38.932Z,3.40
2022-12-15T12:56:40.909Z,3.40
2022-12-15T13:02:35.186Z,3.40
2022-12-15T13:07:37.775Z,3.40
2022-12-15T13:12:54.144Z,3.30
2022-12-15T13:30:15.895Z,3.50
2022-12-15T13:35:23.638Z,3.90
2022-12-15T13:40:34.000Z,3.60
2022-12-15T13:46:22.826Z,3.80
2022-12-15T13:51:32.835Z,3.60
2022-12-15T13:56:53.844Z,3.80
2022-12-15T14:01:53.749Z,3.90
2022-12-15T14:06:55.059Z,3.60
2022-12-15T14:11:54.888Z,3.50
2022-12-15T14:16:56.055Z,3.70
2022-12-15T14:21:56.267Z,3.50
2022-12-15T14:26:56.297Z,3.70
2022-12-15T14:31:56.808Z,3.60
2022-12-15T14:36:57.309Z,3.50
2022-12-15T14:41:58.831Z,3.60
2022-12-15T14:53:50.085Z,3.60
2022-12-15T14:59:03.556Z,3.70
2022-12-15T15:03:13.112Z,3.30
2022-12-15T15:04:03.020Z,3.70
2022-12-15T15:09:16.432Z,3.90
2022-12-15T15:14:19.906Z,3.60
2022-12-15T15:19:22.431Z,3.60
2022-12-15T15:24:25.782Z,4.00
2022-12-15T15:29:40.371Z,3.70
2022-12-15T15:34:39.532Z,4.00
2022-12-15T15:39:37.880Z,3.60
2022-12-15T15:51:19.934Z,3.50
2022-12-15T15:56:18.871Z,3.70
2022-12-15T16:01:17.041Z,3.70
2022-12-15T16:06:18.271Z,3.50
2022-12-15T16:12:05.534Z,3.50
2022-12-15T16:17:05.093Z,3.40
2022-12-15T16:22:03.366Z,3.40
2022-12-15T16:27:02.621Z,3.40
2022-12-15T16:32:00.771Z,3.50
2022-12-15T16:37:00.500Z,3.80
2022-12-15T16:41:59.381Z,3.50
2022-12-15T16:46:58.823Z,3.60
2022-12-15T16:51:57.282Z,3.30
2022-12-15T16:56:58.265Z,3.20
2022-12-15T17:08:54.170Z,3.00
2022-12-15T17:13:56.870Z,3.00
2022-12-15T17:18:55.405Z,3.00
2022-12-15T17:23:56.395Z,3.00
2022-12-15T17:28:56.645Z,2.90
2022-12-15T17:33:54.941Z,2.90
2022-12-15T17:45:50.751Z,2.90
2022-12-15T17:50:50.135Z,2.90
2022-12-15T17:55:49.690Z,2.90
2022-12-15T18:00:51.788Z,3.00
2022-12-15T18:05:51.808Z,3.00
2022-12-15T18:10:52.293Z,3.00
2022-12-15T18:15:52.964Z,3.00
2022-12-15T18:34:29.024Z,2.90
2022-12-15T18:39:27.231Z,2.90
2022-12-15T18:44:27.074Z,2.90
2022-12-15T18:49:25.352Z,2.90
2022-12-15T18:54:26.573Z,2.90
2022-12-15T18:59:25.007Z,2.80
2022-12-15T19:04:23.188Z,2.80
2022-12-15T19:09:24.110Z,2.80
2022-12-15T19:14:36.350Z,2.80
2022-12-15T19:19:51.755Z,2.90
2022-12-15T19:24:58.129Z,2.60
2022-12-15T19:29:56.780Z,2.50
2022-12-15T19:34:54.979Z,2.50
2022-12-15T19:39:54.952Z,2.40
2022-12-15T19:44:53.193Z,2.60
2022-12-15T19:49:52.164Z,2.50
2022-12-15T19:54:54.585Z,2.40
2022-12-15T19:59:52.713Z,2.40
2022-12-15T20:04:53.052Z,2.50
2022-12-15T20:09:51.220Z,2.50
2022-12-15T20:14:50.795Z,2.60
2022-12-15T20:19:48.932Z,2.70
2022-12-15T20:24:48.775Z,2.60
2022-12-15T20:29:46.966Z,2.70
2022-12-15T20:34:46.910Z,2.70
2022-12-15T20:39:45.137Z,2.60
2022-12-15T20:44:43.267Z,2.60
2022-12-15T20:49:41.479Z,2.60
2022-12-15T20:54:42.896Z,2.60
2022-12-15T20:59:41.313Z,2.60
2022-12-15T21:04:39.465Z,2.80
2022-12-15T21:09:37.597Z,2.60
2022-12-15T21:14:37.172Z,2.60
2022-12-15T21:19:35.347Z,2.60
2022-12-15T21:24:34.203Z,2.50
2022-12-15T21:29:39.184Z,2.50
2022-12-15T21:41:33.065Z,2.50
2022-12-15T21:46:32.600Z,2.40
2022-12-15T21:57:47.951Z,2.30
2022-12-15T22:02:48.578Z,2.20
2022-12-15T22:07:46.951Z,2.20
2022-12-15T22:12:54.614Z,2.20
2022-12-15T22:17:58.711Z,2.20
2022-12-15T22:22:56.864Z,2.30
2022-12-15T22:27:55.184Z,2.10
2022-12-15T22:32:53.828Z,2.40
2022-12-15T22:44:48.079Z,2.00
2022-12-15T22:49:46.268Z,2.30
2022-12-15T22:54:46.034Z,1.90
2022-12-15T22:59:49.717Z,1.90
2022-12-15T23:04:47.888Z,1.90
2022-12-15T23:09:46.018Z,2.10
2022-12-15T23:15:01.475Z,1.80
2022-12-15T23:26:57.156Z,1.80
2022-12-15T23:31:55.396Z,2.10
2022-12-15T23:36:53.532Z,1.60
2022-12-15T23:42:29.394Z,1.60
2022-12-15T23:47:29.089Z,1.60
2022-12-15T23:59:15.825Z,1.50
